createdAt,value
2018-11-26T06:32:56.824Z,2.74
2018-11-26T06:44:05.846Z,2.70
2018-11-26T07:24:24.603Z,2.74
2018-11-26T07:35:30.827Z,2.74
2018-11-26T07:46:37.743Z,2.75
2018-11-26T07:57:45.938Z,2.75
2018-11-26T08:08:51.595Z,2.76
2018-11-26T08:20:01.378Z,2.76
2018-11-26T08:31:08.084Z,2.76
2018-11-26T08:42:14.744Z,2.77
2018-11-26T08:53:20.206Z,2.77
2018-11-26T09:04:22.583Z,2.77
2018-11-26T09:15:29.969Z,2.79
2018-11-26T09:26:34.563Z,2.81
2018-11-26T09:37:35.953Z,2.83
2018-11-26T09:48:40.928Z,2.83
2018-11-26T09:59:48.490Z,2.83
2018-11-26T10:10:52.809Z,2.83
2018-11-26T10:21:57.565Z,2.85
2018-11-26T10:33:00.952Z,2.87
2018-11-26T10:44:05.185Z,2.89
2018-11-26T10:55:09.037Z,2.91
2018-11-26T11:06:13.857Z,2.92
2018-11-26T11:17:18.186Z,2.92
2018-11-26T11:28:19.911Z,2.93
2018-11-26T11:39:23.671Z,2.93
2018-11-26T11:50:27.554Z,2.94
2018-11-26T12:01:30.311Z,2.95
2018-11-26T12:12:34.347Z,2.97
2018-11-26T12:23:38.295Z,2.98
2018-11-26T12:34:42.715Z,2.99
2018-11-26T12:45:46.395Z,2.98
2018-11-26T12:56:43.310Z,2.96
2018-11-26T13:07:47.029Z,2.96
2018-11-26T13:18:51.113Z,2.96
2018-11-26T13:29:55.288Z,2.95
2018-11-26T13:40:58.268Z,2.94
2018-11-26T13:52:01.976Z,2.94
2018-11-26T14:03:04.597Z,2.93
2018-11-26T14:14:07.246Z,2.92
2018-11-26T14:25:09.675Z,2.92
2018-11-26T14:36:13.616Z,2.91
2018-11-26T14:47:15.899Z,2.90
2018-11-26T14:58:19.195Z,2.90
2018-11-26T15:09:20.891Z,2.89
2018-11-26T15:20:04.860Z,2.88
2018-11-26T15:31:07.744Z,2.88
2018-11-26T15:42:09.983Z,2.87
2018-11-26T15:53:15.415Z,2.87
2018-11-26T16:04:15.281Z,2.86
2018-11-26T16:15:15.321Z,2.86
2018-11-26T16:26:26.058Z,2.85
2018-11-26T16:37:33.332Z,2.85
2018-11-26T16:48:32.490Z,2.84
2018-11-26T16:59:38.469Z,2.83
2018-11-26T17:10:43.082Z,2.83
2018-11-26T17:21:47.385Z,2.82
2018-11-26T17:32:52.465Z,2.81
2018-11-26T17:44:00.876Z,2.81
2018-11-26T17:55:01.684Z,2.79
2018-11-26T18:06:07.477Z,2.78
2018-11-26T18:17:16.060Z,2.77
